sensor_id;sensor_type;location;lat;lon;timestamp;P1;durP1;ratioP1;P2;durP2;ratioP2
70426;SDS011;57872;55.432;37.248;2022-11-02T00:03:04;11.57;;;4.77;;
70426;SDS011;57872;55.432;37.248;2022-11-02T00:08:05;15.53;;;5.83;;
70426;SDS011;57872;55.432;37.248;2022-11-02T00:13:06;11.17;;;4.63;;
70426;SDS011;57872;55.432;37.248;2022-11-02T00:18:07;11.83;;;4.83;;
70426;SDS011;57872;55.432;37.248;2022-11-02T00:23:09;12.40;;;5.17;;
70426;SDS011;57872;55.432;37.248;2022-11-02T00:28:11;14.90;;;5.23;;
70426;SDS011;57872;55.432;37.248;2022-11-02T00:33:12;14.70;;;5.13;;
70426;SDS011;57872;55.432;37.248;2022-11-02T00:38:13;13.33;;;5.03;;
70426;SDS011;57872;55.432;37.248;2022-11-02T00:43:13;13.83;;;4.97;;
70426;SDS011;57872;55.432;37.248;2022-11-02T00:48:14;12.77;;;5.33;;
70426;SDS011;57872;55.432;37.248;2022-11-02T00:53:15;13.97;;;5.43;;
70426;SDS011;57872;55.432;37.248;2022-11-02T00:58:23;11.80;;;5.37;;
70426;SDS011;57872;55.432;37.248;2022-11-02T01:03:24;12.60;;;5.03;;
70426;SDS011;57872;55.432;37.248;2022-11-02T01:08:25;11.57;;;4.73;;
70426;SDS011;57872;55.432;37.248;2022-11-02T01:13:26;14.13;;;4.93;;
70426;SDS011;57872;55.432;37.248;2022-11-02T01:18:26;11.30;;;4.67;;
70426;SDS011;57872;55.432;37.248;2022-11-02T03:35:13;12.17;;;4.10;;
70426;SDS011;57872;55.432;37.248;2022-11-02T03:40:35;14.57;;;4.30;;
70426;SDS011;57872;55.432;37.248;2022-11-02T03:45:39;11.70;;;3.97;;
70426;SDS011;57872;55.432;37.248;2022-11-02T03:50:45;10.95;;;4.22;;
70426;SDS011;57872;55.432;37.248;2022-11-02T03:55:52;9.17;;;4.07;;
70426;SDS011;57872;55.432;37.248;2022-11-02T04:00:56;11.13;;;4.07;;
70426;SDS011;57872;55.432;37.248;2022-11-02T04:05:59;9.52;;;4.07;;
70426;SDS011;57872;55.432;37.248;2022-11-02T04:11:05;11.03;;;3.93;;
70426;SDS011;57872;55.432;37.248;2022-11-02T04:16:26;8.70;;;3.70;;
70426;SDS011;57872;55.432;37.248;2022-11-02T04:21:28;11.48;;;3.85;;
70426;SDS011;57872;55.432;37.248;2022-11-02T04:26:30;10.23;;;4.00;;
70426;SDS011;57872;55.432;37.248;2022-11-02T04:31:31;11.43;;;4.55;;
70426;SDS011;57872;55.432;37.248;2022-11-02T04:36:32;12.13;;;4.07;;
70426;SDS011;57872;55.432;37.248;2022-11-02T04:41:32;13.20;;;5.37;;
70426;SDS011;57872;55.432;37.248;2022-11-02T04:47:08;12.80;;;5.00;;
70426;SDS011;57872;55.432;37.248;2022-11-02T04:52:09;14.60;;;6.63;;
70426;SDS011;57872;55.432;37.248;2022-11-02T04:57:16;15.33;;;7.07;;
70426;SDS011;57872;55.432;37.248;2022-11-02T05:02:18;16.10;;;7.32;;
70426;SDS011;57872;55.432;37.248;2022-11-02T05:07:20;13.75;;;6.30;;
70426;SDS011;57872;55.432;37.248;2022-11-02T05:12:21;12.18;;;5.32;;
70426;SDS011;57872;55.432;37.248;2022-11-02T05:17:22;15.47;;;6.23;;
70426;SDS011;57872;55.432;37.248;2022-11-02T05:22:23;12.07;;;5.63;;
70426;SDS011;57872;55.432;37.248;2022-11-02T05:27:23;14.97;;;6.77;;
70426;SDS011;57872;55.432;37.248;2022-11-02T05:32:25;13.47;;;6.70;;
70426;SDS011;57872;55.432;37.248;2022-11-02T05:37:26;12.27;;;5.60;;
70426;SDS011;57872;55.432;37.248;2022-11-02T05:42:27;13.40;;;5.80;;
70426;SDS011;57872;55.432;37.248;2022-11-02T05:47:28;18.30;;;6.00;;
70426;SDS011;57872;55.432;37.248;2022-11-02T05:52:29;14.35;;;6.00;;
70426;SDS011;57872;55.432;37.248;2022-11-02T05:57:29;18.50;;;8.13;;
70426;SDS011;57872;55.432;37.248;2022-11-02T06:02:32;14.32;;;7.15;;
70426;SDS011;57872;55.432;37.248;2022-11-02T06:07:33;14.10;;;6.47;;
70426;SDS011;57872;55.432;37.248;2022-11-02T06:12:34;15.05;;;5.57;;
70426;SDS011;57872;55.432;37.248;2022-11-02T06:17:38;10.40;;;4.93;;
70426;SDS011;57872;55.432;37.248;2022-11-02T06:22:39;15.57;;;6.03;;
70426;SDS011;57872;55.432;37.248;2022-11-02T06:27:40;13.52;;;5.63;;
70426;SDS011;57872;55.432;37.248;2022-11-02T06:32:47;15.73;;;5.03;;
70426;SDS011;57872;55.432;37.248;2022-11-02T06:37:49;14.57;;;5.13;;
70426;SDS011;57872;55.432;37.248;2022-11-02T06:42:53;12.32;;;5.50;;
70426;SDS011;57872;55.432;37.248;2022-11-02T06:47:55;14.23;;;5.37;;
70426;SDS011;57872;55.432;37.248;2022-11-02T06:52:56;18.67;;;5.60;;
70426;SDS011;57872;55.432;37.248;2022-11-02T06:57:56;13.45;;;5.15;;
70426;SDS011;57872;55.432;37.248;2022-11-02T07:03:04;12.40;;;5.87;;
70426;SDS011;57872;55.432;37.248;2022-11-02T07:08:06;13.00;;;5.80;;
70426;SDS011;57872;55.432;37.248;2022-11-02T07:13:07;12.87;;;5.50;;
70426;SDS011;57872;55.432;37.248;2022-11-02T07:18:07;13.33;;;6.00;;
70426;SDS011;57872;55.432;37.248;2022-11-02T07:23:08;19.10;;;6.20;;
70426;SDS011;57872;55.432;37.248;2022-11-02T07:28:09;17.45;;;6.20;;
70426;SDS011;57872;55.432;37.248;2022-11-02T07:33:10;13.47;;;5.97;;
70426;SDS011;57872;55.432;37.248;2022-11-02T07:38:10;18.83;;;6.87;;
70426;SDS011;57872;55.432;37.248;2022-11-02T07:43:11;16.03;;;6.10;;
70426;SDS011;57872;55.432;37.248;2022-11-02T07:48:34;14.05;;;5.82;;
70426;SDS011;57872;55.432;37.248;2022-11-02T07:53:35;17.10;;;6.30;;
70426;SDS011;57872;55.432;37.248;2022-11-02T07:58:35;12.27;;;6.03;;
70426;SDS011;57872;55.432;37.248;2022-11-02T08:03:36;13.90;;;6.67;;
70426;SDS011;57872;55.432;37.248;2022-11-02T08:08:37;18.17;;;7.10;;
70426;SDS011;57872;55.432;37.248;2022-11-02T08:13:40;18.42;;;7.13;;
70426;SDS011;57872;55.432;37.248;2022-11-02T08:18:41;18.17;;;7.13;;
70426;SDS011;57872;55.432;37.248;2022-11-02T08:23:41;15.80;;;8.05;;
70426;SDS011;57872;55.432;37.248;2022-11-02T08:28:42;17.07;;;8.37;;
70426;SDS011;57872;55.432;37.248;2022-11-02T08:33:43;14.65;;;8.18;;
70426;SDS011;57872;55.432;37.248;2022-11-02T08:38:44;17.97;;;8.30;;
70426;SDS011;57872;55.432;37.248;2022-11-02T08:43:45;22.05;;;8.75;;
70426;SDS011;57872;55.432;37.248;2022-11-02T08:48:46;16.80;;;8.10;;
70426;SDS011;57872;55.432;37.248;2022-11-02T08:53:46;20.08;;;9.32;;
70426;SDS011;57872;55.432;37.248;2022-11-02T08:58:47;20.45;;;8.52;;
70426;SDS011;57872;55.432;37.248;2022-11-02T09:03:48;18.90;;;8.48;;
70426;SDS011;57872;55.432;37.248;2022-11-02T09:08:48;16.10;;;7.97;;
70426;SDS011;57872;55.432;37.248;2022-11-02T09:13:49;16.58;;;7.50;;
70426;SDS011;57872;55.432;37.248;2022-11-02T09:18:50;21.70;;;9.48;;
70426;SDS011;57872;55.432;37.248;2022-11-02T09:23:50;23.02;;;8.57;;
70426;SDS011;57872;55.432;37.248;2022-11-02T09:28:51;21.63;;;8.83;;
70426;SDS011;57872;55.432;37.248;2022-11-02T09:33:51;19.60;;;10.27;;
70426;SDS011;57872;55.432;37.248;2022-11-02T09:38:52;21.23;;;9.63;;
70426;SDS011;57872;55.432;37.248;2022-11-02T09:49:03;22.33;;;10.33;;
70426;SDS011;57872;55.432;37.248;2022-11-02T09:54:24;22.70;;;8.82;;
70426;SDS011;57872;55.432;37.248;2022-11-02T09:59:29;21.13;;;10.30;;
70426;SDS011;57872;55.432;37.248;2022-11-02T10:09:55;22.63;;;10.75;;
70426;SDS011;57872;55.432;37.248;2022-11-02T10:15:06;19.20;;;9.88;;
70426;SDS011;57872;55.432;37.248;2022-11-02T10:20:16;28.00;;;10.18;;
70426;SDS011;57872;55.432;37.248;2022-11-02T10:25:18;23.27;;;10.82;;
70426;SDS011;57872;55.432;37.248;2022-11-02T10:30:19;22.73;;;10.23;;
70426;SDS011;57872;55.432;37.248;2022-11-02T10:56:02;22.52;;;10.20;;
70426;SDS011;57872;55.432;37.248;2022-11-02T11:01:25;21.95;;;10.10;;
70426;SDS011;57872;55.432;37.248;2022-11-02T11:06:27;19.48;;;9.20;;
70426;SDS011;57872;55.432;37.248;2022-11-02T11:11:36;24.02;;;10.98;;
70426;SDS011;57872;55.432;37.248;2022-11-02T11:16:41;22.77;;;11.07;;
70426;SDS011;57872;55.432;37.248;2022-11-02T11:21:44;22.38;;;12.25;;
70426;SDS011;57872;55.432;37.248;2022-11-02T11:26:44;26.85;;;13.15;;
70426;SDS011;57872;55.432;37.248;2022-11-02T11:31:45;25.38;;;12.23;;
70426;SDS011;57872;55.432;37.248;2022-11-02T11:36:46;25.25;;;11.80;;
70426;SDS011;57872;55.432;37.248;2022-11-02T11:41:46;29.80;;;12.25;;
70426;SDS011;57872;55.432;37.248;2022-11-02T11:46:48;23.65;;;11.77;;
70426;SDS011;57872;55.432;37.248;2022-11-02T11:51:50;21.50;;;11.73;;
70426;SDS011;57872;55.432;37.248;2022-11-02T11:56:53;26.45;;;12.38;;
70426;SDS011;57872;55.432;37.248;2022-11-02T12:01:56;23.23;;;13.57;;
70426;SDS011;57872;55.432;37.248;2022-11-02T12:12:19;31.95;;;14.68;;
70426;SDS011;57872;55.432;37.248;2022-11-02T12:22:51;24.25;;;10.32;;
70426;SDS011;57872;55.432;37.248;2022-11-02T12:33:34;21.73;;;9.07;;
70426;SDS011;57872;55.432;37.248;2022-11-02T12:44:01;20.38;;;8.15;;
70426;SDS011;57872;55.432;37.248;2022-11-02T12:54:49;15.98;;;7.80;;
70426;SDS011;57872;55.432;37.248;2022-11-02T12:59:52;22.27;;;9.15;;
70426;SDS011;57872;55.432;37.248;2022-11-02T13:04:59;16.63;;;8.10;;
70426;SDS011;57872;55.432;37.248;2022-11-02T13:10:05;19.67;;;8.37;;
70426;SDS011;57872;55.432;37.248;2022-11-02T13:15:15;20.70;;;8.40;;
70426;SDS011;57872;55.432;37.248;2022-11-02T13:20:28;16.87;;;7.83;;
70426;SDS011;57872;55.432;37.248;2022-11-02T13:25:39;17.92;;;8.77;;
70426;SDS011;57872;55.432;37.248;2022-11-02T13:30:42;17.27;;;7.82;;
70426;SDS011;57872;55.432;37.248;2022-11-02T13:35:43;16.85;;;7.95;;
70426;SDS011;57872;55.432;37.248;2022-11-02T13:41:09;15.80;;;7.65;;
70426;SDS011;57872;55.432;37.248;2022-11-02T13:51:48;16.20;;;7.70;;
70426;SDS011;57872;55.432;37.248;2022-11-02T13:56:52;18.20;;;7.80;;
70426;SDS011;57872;55.432;37.248;2022-11-02T14:01:54;17.35;;;7.45;;
70426;SDS011;57872;55.432;37.248;2022-11-02T14:06:57;14.70;;;6.73;;
70426;SDS011;57872;55.432;37.248;2022-11-02T14:17:18;17.73;;;6.23;;
70426;SDS011;57872;55.432;37.248;2022-11-02T14:22:19;14.13;;;6.17;;
70426;SDS011;57872;55.432;37.248;2022-11-02T14:32:37;11.13;;;5.53;;
70426;SDS011;57872;55.432;37.248;2022-11-02T14:38:05;14.37;;;5.87;;
70426;SDS011;57872;55.432;37.248;2022-11-02T14:48:54;13.98;;;6.57;;
70426;SDS011;57872;55.432;37.248;2022-11-02T14:54:01;14.60;;;6.80;;
70426;SDS011;57872;55.432;37.248;2022-11-02T14:59:11;12.30;;;5.27;;
70426;SDS011;57872;55.432;37.248;2022-11-02T15:04:17;22.70;;;12.00;;
70426;SDS011;57872;55.432;37.248;2022-11-02T15:14:53;12.73;;;5.87;;
70426;SDS011;57872;55.432;37.248;2022-11-02T15:25:16;17.77;;;7.20;;
70426;SDS011;57872;55.432;37.248;2022-11-02T15:30:25;17.83;;;7.70;;
70426;SDS011;57872;55.432;37.248;2022-11-02T15:35:29;17.57;;;8.20;;
70426;SDS011;57872;55.432;37.248;2022-11-02T15:40:35;20.27;;;7.23;;
70426;SDS011;57872;55.432;37.248;2022-11-02T16:01:38;20.03;;;7.73;;
70426;SDS011;57872;55.432;37.248;2022-11-02T16:06:40;19.87;;;8.70;;
70426;SDS011;57872;55.432;37.248;2022-11-02T16:11:42;17.33;;;7.93;;
70426;SDS011;57872;55.432;37.248;2022-11-02T16:16:46;18.00;;;6.87;;
70426;SDS011;57872;55.432;37.248;2022-11-02T16:21:48;17.13;;;7.33;;
70426;SDS011;57872;55.432;37.248;2022-11-02T16:26:49;20.10;;;7.93;;
70426;SDS011;57872;55.432;37.248;2022-11-02T16:31:50;18.93;;;8.13;;
70426;SDS011;57872;55.432;37.248;2022-11-02T16:36:51;16.93;;;7.50;;
70426;SDS011;57872;55.432;37.248;2022-11-02T16:41:52;24.90;;;8.53;;
70426;SDS011;57872;55.432;37.248;2022-11-02T16:57:25;31.10;;;14.23;;
70426;SDS011;57872;55.432;37.248;2022-11-02T17:07:39;20.57;;;7.57;;
70426;SDS011;57872;55.432;37.248;2022-11-02T17:12:41;18.03;;;7.63;;
70426;SDS011;57872;55.432;37.248;2022-11-02T17:17:42;23.33;;;8.00;;
70426;SDS011;57872;55.432;37.248;2022-11-02T17:22:47;17.00;;;7.67;;
70426;SDS011;57872;55.432;37.248;2022-11-02T17:27:49;19.60;;;7.70;;
70426;SDS011;57872;55.432;37.248;2022-11-02T17:32:50;18.67;;;8.20;;
70426;SDS011;57872;55.432;37.248;2022-11-02T17:37:51;18.73;;;7.23;;
70426;SDS011;57872;55.432;37.248;2022-11-02T17:42:52;19.57;;;7.57;;
70426;SDS011;57872;55.432;37.248;2022-11-02T17:48:00;18.93;;;7.87;;
70426;SDS011;57872;55.432;37.248;2022-11-02T17:53:01;17.60;;;7.90;;
70426;SDS011;57872;55.432;37.248;2022-11-02T17:58:04;18.93;;;8.53;;
70426;SDS011;57872;55.432;37.248;2022-11-02T18:08:31;18.10;;;7.70;;
70426;SDS011;57872;55.432;37.248;2022-11-02T18:13:52;16.83;;;7.23;;
70426;SDS011;57872;55.432;37.248;2022-11-02T18:18:53;15.47;;;7.40;;
70426;SDS011;57872;55.432;37.248;2022-11-02T18:23:54;16.97;;;7.93;;
70426;SDS011;57872;55.432;37.248;2022-11-02T18:28:54;17.37;;;6.90;;
70426;SDS011;57872;55.432;37.248;2022-11-02T18:33:55;17.70;;;6.83;;
70426;SDS011;57872;55.432;37.248;2022-11-02T18:38:57;15.73;;;6.63;;
70426;SDS011;57872;55.432;37.248;2022-11-02T18:43:58;17.50;;;6.93;;
70426;SDS011;57872;55.432;37.248;2022-11-02T18:49:03;15.10;;;6.60;;
70426;SDS011;57872;55.432;37.248;2022-11-02T18:54:04;15.23;;;6.83;;
70426;SDS011;57872;55.432;37.248;2022-11-02T18:59:05;17.23;;;7.23;;
70426;SDS011;57872;55.432;37.248;2022-11-02T19:04:06;16.73;;;7.47;;
70426;SDS011;57872;55.432;37.248;2022-11-02T19:09:07;13.57;;;6.73;;
70426;SDS011;57872;55.432;37.248;2022-11-02T19:14:19;20.03;;;7.47;;
70426;SDS011;57872;55.432;37.248;2022-11-02T19:19:20;17.70;;;7.33;;
70426;SDS011;57872;55.432;37.248;2022-11-02T19:24:21;15.17;;;7.17;;
70426;SDS011;57872;55.432;37.248;2022-11-02T19:29:22;17.17;;;7.47;;
70426;SDS011;57872;55.432;37.248;2022-11-02T19:34:23;17.03;;;7.27;;
70426;SDS011;57872;55.432;37.248;2022-11-02T19:39:24;16.07;;;7.60;;
70426;SDS011;57872;55.432;37.248;2022-11-02T19:44:25;18.90;;;7.63;;
70426;SDS011;57872;55.432;37.248;2022-11-02T19:49:26;14.80;;;6.50;;
70426;SDS011;57872;55.432;37.248;2022-11-02T19:54:26;16.73;;;7.03;;
70426;SDS011;57872;55.432;37.248;2022-11-02T19:59:27;18.33;;;7.50;;
70426;SDS011;57872;55.432;37.248;2022-11-02T20:04:32;15.47;;;6.57;;
70426;SDS011;57872;55.432;37.248;2022-11-02T20:09:33;15.40;;;6.80;;
70426;SDS011;57872;55.432;37.248;2022-11-02T20:14:34;13.90;;;6.27;;
70426;SDS011;57872;55.432;37.248;2022-11-02T20:19:35;16.03;;;6.43;;
70426;SDS011;57872;55.432;37.248;2022-11-02T20:24:36;14.80;;;7.27;;
70426;SDS011;57872;55.432;37.248;2022-11-02T20:29:37;13.97;;;6.17;;
70426;SDS011;57872;55.432;37.248;2022-11-02T20:34:39;15.97;;;6.10;;
70426;SDS011;57872;55.432;37.248;2022-11-02T20:39:40;10.73;;;5.70;;
70426;SDS011;57872;55.432;37.248;2022-11-02T20:44:41;12.77;;;5.80;;
70426;SDS011;57872;55.432;37.248;2022-11-02T20:49:44;11.27;;;6.23;;
70426;SDS011;57872;55.432;37.248;2022-11-02T20:54:44;12.37;;;5.40;;
70426;SDS011;57872;55.432;37.248;2022-11-02T20:59:45;12.27;;;5.60;;
70426;SDS011;57872;55.432;37.248;2022-11-02T21:04:46;12.30;;;5.60;;
70426;SDS011;57872;55.432;37.248;2022-11-02T21:09:46;13.20;;;5.70;;
70426;SDS011;57872;55.432;37.248;2022-11-02T21:14:47;14.90;;;5.47;;
70426;SDS011;57872;55.432;37.248;2022-11-02T21:19:48;10.37;;;5.57;;
70426;SDS011;57872;55.432;37.248;2022-11-02T21:24:49;14.43;;;5.70;;
70426;SDS011;57872;55.432;37.248;2022-11-02T21:29:49;10.67;;;5.50;;
70426;SDS011;57872;55.432;37.248;2022-11-02T21:34:50;14.53;;;5.83;;
70426;SDS011;57872;55.432;37.248;2022-11-02T21:39:50;13.23;;;5.67;;
70426;SDS011;57872;55.432;37.248;2022-11-02T21:44:51;13.07;;;5.80;;
70426;SDS011;57872;55.432;37.248;2022-11-02T21:49:52;13.37;;;5.80;;
70426;SDS011;57872;55.432;37.248;2022-11-02T21:54:52;16.67;;;6.27;;
70426;SDS011;57872;55.432;37.248;2022-11-02T21:59:53;14.40;;;6.17;;
70426;SDS011;57872;55.432;37.248;2022-11-02T22:04:54;11.73;;;5.70;;
70426;SDS011;57872;55.432;37.248;2022-11-02T22:09:55;12.53;;;5.67;;
70426;SDS011;57872;55.432;37.248;2022-11-02T22:14:56;9.43;;;5.13;;
70426;SDS011;57872;55.432;37.248;2022-11-02T22:19:57;9.77;;;5.40;;
70426;SDS011;57872;55.432;37.248;2022-11-02T22:24:57;12.33;;;5.10;;
70426;SDS011;57872;55.432;37.248;2022-11-02T22:29:58;9.97;;;4.80;;
70426;SDS011;57872;55.432;37.248;2022-11-02T22:34:59;11.37;;;4.97;;
70426;SDS011;57872;55.432;37.248;2022-11-02T22:39:59;8.50;;;4.40;;
70426;SDS011;57872;55.432;37.248;2022-11-02T22:45:00;9.63;;;4.57;;
70426;SDS011;57872;55.432;37.248;2022-11-02T22:50:01;10.63;;;4.70;;
70426;SDS011;57872;55.432;37.248;2022-11-02T22:55:01;9.17;;;4.57;;
70426;SDS011;57872;55.432;37.248;2022-11-02T23:00:03;9.93;;;4.83;;
70426;SDS011;57872;55.432;37.248;2022-11-02T23:05:04;8.63;;;4.33;;
70426;SDS011;57872;55.432;37.248;2022-11-02T23:10:05;9.53;;;4.60;;
70426;SDS011;57872;55.432;37.248;2022-11-02T23:15:27;9.23;;;4.37;;
70426;SDS011;57872;55.432;37.248;2022-11-02T23:20:28;8.60;;;4.20;;
70426;SDS011;57872;55.432;37.248;2022-11-02T23:25:29;7.83;;;4.07;;
70426;SDS011;57872;55.432;37.248;2022-11-02T23:30:30;8.33;;;4.27;;
70426;SDS011;57872;55.432;37.248;2022-11-02T23:35:51;8.13;;;4.13;;
70426;SDS011;57872;55.432;37.248;2022-11-02T23:41:10;9.30;;;4.33;;
70426;SDS011;57872;55.432;37.248;2022-11-02T23:46:10;9.20;;;4.97;;
70426;SDS011;57872;55.432;37.248;2022-11-02T23:51:11;8.43;;;4.40;;
70426;SDS011;57872;55.432;37.248;2022-11-02T23:56:30;15.13;;;4.97;;
